Flight Track Log - Related Links

Times and Time Zones

All times are in EDT time to prevent confusion due to time zone crossing. See the UAL3744 flight status page for this flight to view local times or setup timezone preferences in your user account.

Time Position Orientation Groundspeed Altitude Reporting Facility
EDT Latitude Longitude Course Direction KTS MPH feet Rate Location/Type
Wed 08:38:32 AM 38.9167 -77.4333 229° Southwest 162 186 1,300  Level Potomac TRACON
Wed 08:39:26 AM 38.8833 -77.4833 229° Southwest 211 243 2,700 2,036 Climbing Potomac TRACON
Wed 08:41:20 AM 38.7947 -77.5839 222° Southwest 240 276 7,000 2,497 Climbing Washington Center
Wed 08:42:19 AM 38.7808 -77.6742 259° West 245 282 9,900 2,622 Climbing Washington Center
Wed 08:43:19 AM 38.8294 -77.7528 308° West 228 262 12,200 1,850 Climbing Washington Center
Wed 08:44:19 AM 38.8375 -77.8731 275° West 288 331 13,600 1,350 Climbing Washington Center
Wed 08:45:19 AM 38.8417 -77.9822 273° West 324 373 14,900 1,350 Climbing Washington Center
Wed 08:46:19 AM 38.8497 -78.1053 275° West 342 394 16,300 1,050 Climbing Washington Center
Wed 08:47:19 AM 38.8550 -78.2386 273° West 364 419 17,000 750 Climbing Washington Center
Wed 08:48:19 AM 38.8519 -78.3800 268° West 385 443 17,800 900 Climbing Washington Center
Wed 08:49:19 AM 38.8508 -78.5183 269° West 390 449 18,800 1,000 Climbing Washington Center
Wed 08:50:19 AM 38.8492 -78.6597 269° West 396 456 19,800 992 Climbing Washington Center
Wed 08:51:20 AM 38.8478 -78.8008 269° West 401 461 20,800 1,000 Climbing Washington Center
Wed 08:52:19 AM 38.8458 -78.9419 269° West 401 461 21,800 1,008 Climbing Washington Center
Wed 08:53:19 AM 38.8439 -79.0833 269° West 401 461 22,800 992 Climbing Washington Center
Wed 08:54:20 AM 38.8358 -79.2214 266° West 401 461 23,800 1,000 Climbing Washington Center
Wed 08:55:19 AM 38.8128 -79.3589 258° West 401 461 24,800 1,008 Climbing Washington Center
Wed 08:56:19 AM 38.7919 -79.4911 259° West 401 461 25,800 1,000 Climbing Washington Center
Wed 08:57:19 AM 38.7642 -79.6333 256° West 401 461 26,800 1,000 Climbing Washington Center
Wed 08:58:19 AM 38.7386 -79.7678 256° West 401 461 27,800 1,100 Climbing Washington Center
Wed 08:59:19 AM 38.7125 -79.9178 257° West 401 461 29,000 1,050 Climbing Washington Center
Wed 09:00:19 AM 38.6600 -80.0425 242° Southwest 390 449 29,900 950 Climbing Washington Center
Wed 09:01:19 AM 38.5972 -80.1583 235° Southwest 396 456 30,900 950 Climbing Washington Center
Wed 09:02:19 AM 38.5392 -80.2608 234° Southwest 404 465 31,800 930 Climbing Washington Center
Wed 09:03:28 AM 38.4892 -80.4061 246° West 393 452 32,900 909 Climbing Indianapolis Center
Wed 09:04:31 AM 38.4772 -80.5414 264° West 384 442 33,800 532 Climbing Indianapolis Center
Wed 09:05:32 AM 38.4681 -80.6786 265° West 388 447 34,000 293 Climbing Indianapolis Center
Wed 09:06:34 AM 38.4881 -80.8156 281° West 392 451 34,400 439 Climbing Indianapolis Center
Wed 09:07:35 AM 38.5072 -80.9547 280° West 397 457 34,900 537 Climbing Indianapolis Center
Wed 09:08:37 AM 38.5283 -81.0917 281° West 393 452 35,500 532 Climbing Indianapolis Center
Wed 09:09:39 AM 38.4961 -81.2547 256° West 390 449 36,000 244 Climbing Indianapolis Center
Wed 09:10:40 AM 38.4583 -81.3911 251° West 398 458 36,000  Level Indianapolis Center
Wed 09:11:42 AM 38.4194 -81.5261 250° West 401 461 36,000  Level Indianapolis Center
Wed 09:12:44 AM 38.3831 -81.6553 250° West 386 444 36,000  Level Indianapolis Center
Wed 09:13:45 AM 38.3481 -81.7781 250° West 370 426 36,000  Level Indianapolis Center
Wed 09:14:47 AM 38.3136 -81.9047 251° West 374 430 36,000  Level Indianapolis Center
Wed 09:15:49 AM 38.2775 -82.0256 249° West 367 422 36,000  Level Indianapolis Center
Wed 09:16:51 AM 38.2444 -82.1439 250° West 357 411 36,000  Level Indianapolis Center
Wed 09:17:53 AM 38.2108 -82.2631 250° West 356 410 36,000  Level Indianapolis Center
Wed 09:18:54 AM 38.1781 -82.3811 251° West 355 409 36,000  Level Indianapolis Center
Wed 09:19:56 AM 38.1392 -82.5172 250° West 362 417 36,000  Level Indianapolis Center
Wed 09:20:58 AM 38.1056 -82.6342 250° West 357 411 36,000  Level Indianapolis Center
Wed 09:22:00 AM 38.0700 -82.7544 249° West 361 415 36,000  Level Indianapolis Center
Wed 09:23:02 AM 38.0297 -82.8967 250° West 366 421 36,000  Level Indianapolis Center
Wed 09:24:04 AM 37.9953 -83.0167 250° West 364 419 36,000  Level Indianapolis Center
Wed 09:25:05 AM 37.9594 -83.1364 249° West 364 419 36,000  Level Indianapolis Center
Wed 09:26:07 AM 37.9233 -83.2586 249° West 369 425 36,000  Level Indianapolis Center
Wed 09:27:09 AM 37.8869 -83.3811 249° West 373 429 36,000  Level Indianapolis Center
Wed 09:28:11 AM 37.8500 -83.5058 249° West 377 434 36,000  Level Indianapolis Center
Wed 09:29:13 AM 37.8061 -83.6528 249° West 383 441 36,000  Level Indianapolis Center
Wed 09:30:15 AM 37.7681 -83.7803 249° West 388 447 36,000  Level Indianapolis Center
Wed 09:31:17 AM 37.7294 -83.9072 249° West 389 448 36,000 48 Level Indianapolis Center
Wed 09:32:19 AM 37.6908 -84.0358 249° West 391 450 36,100  Climbing Indianapolis Center
Wed 09:33:21 AM 37.6511 -84.1642 249° West 392 451 36,000 -48 Descending Indianapolis Center
Wed 09:34:23 AM 37.6058 -84.3139 249° West 392 451 36,000  Level Indianapolis Center
Wed 09:35:24 AM 37.5667 -84.4417 249° West 393 452 36,000  Level Indianapolis Center
Wed 09:36:26 AM 37.5275 -84.5694 249° West 392 451 36,000  Level Indianapolis Center
Wed 09:37:28 AM 37.4878 -84.6961 248° West 391 450 36,000  Level Indianapolis Center
Wed 09:38:30 AM 37.4478 -84.8236 248° West 391 450 36,000  Level Indianapolis Center
Wed 09:39:32 AM 37.4083 -84.9519 249° West 391 450 36,000  Level Indianapolis Center
Wed 09:40:34 AM 37.3614 -85.1017 249° West 394 453 36,000  Level Indianapolis Center
Wed 09:41:36 AM 37.3206 -85.2292 248° West 393 452 36,000  Level Indianapolis Center
Wed 09:42:38 AM 37.2800 -85.3583 248° West 396 456 36,000  Level Indianapolis Center
Wed 09:43:39 AM 37.2381 -85.4869 248° West 396 456 36,000  Level Indianapolis Center
Wed 09:44:41 AM 37.1953 -85.6264 249° West 395 455 36,000  Level Indianapolis Center
Wed 09:45:09 AM 37.1753 -85.6892 248° West 394 453 36,000  Level Memphis Center
Wed 09:46:09 AM 37.1400 -85.8033 249° West 394 453 36,000  Level Memphis Center
Wed 09:47:09 AM 37.0986 -85.9278 247° West 394 453 36,000  Level Memphis Center
Wed 09:48:09 AM 37.0572 -86.0522 247° West 394 453 36,000  Level Memphis Center
Wed 09:49:09 AM 37.0175 -86.1739 248° West 389 448 36,000  Level Memphis Center
Wed 09:50:09 AM 36.9778 -86.2956 248° West 384 442 36,000  Level Memphis Center
Wed 09:51:09 AM 36.9364 -86.4272 249° West 378 435 36,000  Level Memphis Center
Wed 09:52:09 AM 36.8942 -86.5461 246° West 378 435 36,000  Level Memphis Center
Wed 09:53:09 AM 36.8536 -86.6569 245° Southwest 371 427 36,000  Level Memphis Center
Wed 09:54:09 AM 36.8114 -86.7756 246° West 366 421 36,000  Level Memphis Center
Wed 09:55:09 AM 36.7708 -86.8861 245° Southwest 360 414 36,000  Level Memphis Center
Wed 09:56:09 AM 36.7303 -87.0017 246° West 360 414 36,000  Level Memphis Center
Wed 09:57:09 AM 36.6872 -87.1147 245° Southwest 360 414 36,000  Level Memphis Center
Wed 09:58:09 AM 36.6464 -87.2303 246° West 360 414 36,000  Level Memphis Center
Wed 09:59:09 AM 36.6033 -87.3431 245° Southwest 366 421 36,000  Level Memphis Center
Wed 10:00:09 AM 36.5625 -87.4583 246° West 366 421 36,000  Level Memphis Center
Wed 10:01:09 AM 36.5172 -87.5736 244° Southwest 361 415 36,000  Level Memphis Center
Wed 10:02:09 AM 36.4778 -87.6756 244° Southwest 361 415 36,000  Level Memphis Center
Wed 10:03:09 AM 36.4364 -87.7878 245° Southwest 361 415 36,000  Level Memphis Center
Wed 10:04:09 AM 36.3947 -87.9025 246° West 366 421 36,000  Level Memphis Center
Wed 10:05:09 AM 36.3533 -88.0172 246° West 366 421 36,000  Level Memphis Center
Wed 10:06:09 AM 36.3117 -88.1292 245° Southwest 358 412 36,000  Level Memphis Center
Wed 10:07:09 AM 36.2678 -88.2436 245° Southwest 358 412 36,000  Level Memphis Center
Wed 10:08:09 AM 36.2236 -88.3581 244° Southwest 363 418 36,000  Level Memphis Center
Wed 10:09:09 AM 36.1736 -88.4853 244° Southwest 363 418 36,000  Level Memphis Center
Wed 10:10:09 AM 36.1272 -88.6019 244° Southwest 363 418 36,000  Level Memphis Center
Wed 10:11:09 AM 36.0831 -88.7158 244° Southwest 368 423 36,000  Level Memphis Center
Wed 10:12:09 AM 36.0386 -88.8297 244° Southwest 368 423 36,000  Level Memphis Center
Wed 10:13:09 AM 35.9942 -88.9433 244° Southwest 368 423 36,000  Level Memphis Center
Wed 10:14:09 AM 35.9494 -89.0569 244° Southwest 368 423 36,000  Level Memphis Center
Wed 10:15:09 AM 35.9047 -89.1706 244° Southwest 368 423 36,000  Level Memphis Center
Wed 10:16:09 AM 35.8619 -89.2839 245° Southwest 368 423 36,000  Level Memphis Center
Wed 10:17:09 AM 35.8150 -89.3969 243° Southwest 368 423 36,000  Level Memphis Center
Wed 10:18:09 AM 35.7719 -89.5100 245° Southwest 368 423 36,000  Level Memphis Center
Wed 10:19:09 AM 35.7247 -89.6256 243° Southwest 368 423 36,000  Level Memphis Center
Wed 10:20:09 AM 35.6897 -89.7156 244° Southwest 368 423 36,000  Level Memphis Center
Wed 10:21:09 AM 35.6425 -89.8511 247° West 356 410 36,000  Level Memphis Center
Wed 10:22:09 AM 35.5969 -89.9639 244° Southwest 367 422 36,000  Level Memphis Center
Wed 10:23:09 AM 35.5514 -90.0764 244° Southwest 367 422 36,000  Level Memphis Center
Wed 10:24:09 AM 35.5078 -90.1914 245° Southwest 367 422 36,000  Level Memphis Center
Wed 10:25:09 AM 35.4622 -90.3008 243° Southwest 360 414 36,000  Level Memphis Center
Wed 10:26:09 AM 35.4161 -90.4156 244° Southwest 365 420 36,000  Level Memphis Center
Wed 10:27:09 AM 35.3722 -90.5250 244° Southwest 365 420 36,000  Level Memphis Center
Wed 10:28:09 AM 35.3261 -90.6394 244° Southwest 365 420 36,000  Level Memphis Center
Wed 10:29:09 AM 35.2842 -90.7386 243° Southwest 365 420 36,000  Level Memphis Center
Wed 10:30:09 AM 35.2381 -90.8503 243° Southwest 359 413 36,000  Level Memphis Center
Wed 10:31:09 AM 35.1917 -90.9617 243° Southwest 365 420 36,000  Level Memphis Center
Wed 10:32:09 AM 35.1472 -91.0733 244° Southwest 365 420 36,000  Level Memphis Center
Wed 10:33:09 AM 35.1006 -91.1844 243° Southwest 365 420 36,000  Level Memphis Center
Wed 10:34:09 AM 35.0539 -91.2956 243° Southwest 370 426 36,000  Level Memphis Center
Wed 10:35:09 AM 35.0008 -91.4117 241° Southwest 362 417 36,000  Level Memphis Center
Wed 10:36:09 AM 34.9561 -91.5225 244° Southwest 362 417 36,000  Level Memphis Center
Wed 10:37:09 AM 34.9092 -91.6333 243° Southwest 367 422 36,000  Level Memphis Center
Wed 10:38:09 AM 34.8619 -91.7442 243° Southwest 367 422 36,000  Level Memphis Center
Wed 10:39:09 AM 34.8169 -91.8519 243° Southwest 361 415 36,000  Level Memphis Center
Wed 10:40:09 AM 34.7697 -91.9625 243° Southwest 361 415 36,000  Level Memphis Center
Wed 10:41:09 AM 34.7222 -92.0753 243° Southwest 361 415 36,000  Level Memphis Center
Wed 10:42:09 AM 34.6789 -92.1831 244° Southwest 361 415 36,000  Level Memphis Center
Wed 10:43:09 AM 34.6458 -92.3036 252° West 361 415 36,000  Level Memphis Center
Wed 10:44:09 AM 34.6150 -92.4164 252° West 361 415 36,000  Level Memphis Center
Wed 10:45:09 AM 34.5817 -92.5342 251° West 366 421 36,000  Level Memphis Center
Wed 10:46:09 AM 34.5522 -92.6519 253° West 366 421 36,000  Level Memphis Center
Wed 10:47:09 AM 34.5208 -92.7694 252° West 366 421 36,000  Level Memphis Center
Wed 10:48:09 AM 34.4894 -92.8869 252° West 366 421 36,000  Level Memphis Center
Wed 10:49:09 AM 34.4622 -92.9919 253° West 373 429 36,000  Level Memphis Center
Wed 10:50:09 AM 34.4283 -93.1119 251° West 373 429 36,000  Level Memphis Center
Wed 10:51:54 AM 34.3778 -93.3197 254° West 364 419 36,000  Level Fort Worth Center
Wed 10:52:54 AM 34.3442 -93.4369 251° West 369 425 36,000  Level Fort Worth Center
Wed 10:53:54 AM 34.3122 -93.5542 252° West 369 425 36,000  Level Fort Worth Center
Wed 10:54:54 AM 34.2783 -93.6739 251° West 369 425 36,000  Level Fort Worth Center
Wed 10:55:54 AM 34.2483 -93.7931 253° West 369 425 36,000  Level Fort Worth Center
Wed 10:56:54 AM 34.2142 -93.9100 251° West 369 425 36,000  Level Fort Worth Center
Wed 10:57:54 AM 34.1800 -94.0294 251° West 374 430 36,000  Level Fort Worth Center
Wed 10:58:54 AM 34.1456 -94.1486 251° West 374 430 36,000 -150 Level Fort Worth Center
Wed 10:59:54 AM 34.1131 -94.2678 252° West 374 430 35,700 -1,150 Descending Fort Worth Center
Wed 11:00:54 AM 34.0806 -94.3869 252° West 374 430 33,700 -1,850 Descending Fort Worth Center
Wed 11:01:54 AM 34.0478 -94.4983 250° West 369 425 32,000 -1,750 Descending Fort Worth Center
Wed 11:02:54 AM 34.0167 -94.6044 251° West 357 411 30,200 -1,800 Descending Fort Worth Center
Wed 11:03:54 AM 34.0044 -94.7100 262° West 349 402 28,400 -1,800 Descending Fort Worth Center
Wed 11:04:54 AM 34.0294 -94.8097 287° West 310 357 26,600 -1,800 Descending Fort Worth Center
Wed 11:05:54 AM 34.0044 -94.9106 253° West 310 357 24,800 -1,300 Descending Fort Worth Center
Wed 11:06:54 AM 33.9728 -95.0042 248° West 310 357 24,000 -400 Descending Fort Worth Center
Wed 11:07:54 AM 33.9411 -95.0928 247° West 305 351 24,000  Level Fort Worth Center
Wed 11:08:54 AM 33.9114 -95.1811 248° West 293 337 24,000  Level Fort Worth Center
Wed 11:09:54 AM 33.8778 -95.2769 247° West 298 343 24,000  Level Fort Worth Center
Wed 11:10:54 AM 33.8436 -95.3678 246° West 298 343 24,000 -300 Level Fort Worth Center
Wed 11:11:54 AM 33.8097 -95.4661 247° West 306 352 23,400 -850 Descending Fort Worth Center
Wed 11:12:54 AM 33.7758 -95.5694 248° West 320 368 22,300 -1,150 Descending Fort Worth Center
Wed 11:13:54 AM 33.7317 -95.6900 246° West 353 406 21,100 -1,150 Descending Fort Worth Center
Wed 11:14:54 AM 33.6914 -95.8083 248° West 371 427 20,000 -1,100 Descending Fort Worth Center
Wed 11:15:54 AM 33.6531 -95.9089 245° Southwest 376 433 18,900 -950 Descending Fort Worth Center
Wed 11:16:54 AM 33.6106 -96.0342 248° West 381 438 18,100 -900 Descending Fort Worth Center
Wed 11:17:54 AM 33.5742 -96.1344 246° West 376 433 17,100 -1,100 Descending Fort Worth Center
Wed 11:18:54 AM 33.5231 -96.2475 242° Southwest 358 412 15,900 -1,100 Descending Fort Worth Center
Wed 11:19:54 AM 33.4592 -96.3253 225° Southwest 363 418 14,900 -1,100 Descending Fort Worth Center
Wed 11:20:54 AM 33.3847 -96.4158 225° Southwest 358 412 13,700 -1,100 Descending Fort Worth Center
Wed 11:21:54 AM 33.3308 -96.4811 225° Southwest 324 373 12,700 -1,100 Descending Fort Worth Center
Wed 11:22:54 AM 33.2667 -96.5589 225° Southwest 303 349 11,500 -850 Descending Fort Worth Center
Wed 11:23:54 AM 33.2067 -96.6289 224° Southwest 303 349 11,000 -200 Descending Fort Worth Center
Wed 11:24:54 AM 33.1589 -96.6864 225° Southwest 285 328 11,100 50 Climbing Fort Worth Center
Wed 11:25:54 AM 33.1008 -96.7564 225° Southwest 274 315 11,100  Level Fort Worth Center
Wed 11:26:21 AM 33.0833 -96.7833 232° Southwest 276 318 11,100 -50 Level Dallas / Fort Worth TRACON
Wed 11:27:54 AM 32.9931 -96.8808 222° Southwest 274 315 11,000  Descending Fort Worth Center
Wed 11:28:21 AM 32.9667 -96.9000 211° Southwest 265 305 11,100 -1,000 Climbing Dallas / Fort Worth TRACON
Wed 11:29:54 AM 32.8533 -96.9064 183° South 251 289 9,000 -1,700 Descending Fort Worth Center
Wed 11:30:21 AM 32.8167 -96.9000 172° South 241 277 7,700 -3,034 Descending Dallas / Fort Worth TRACON
Wed 11:31:21 AM 32.7500 -96.9167 192° South 251 289 4,600 -2,231 Descending Dallas / Fort Worth TRACON
Wed 11:32:22 AM 32.7500 -96.9833 270° West 213 245 3,200 -942 Descending Dallas / Fort Worth TRACON
Wed 11:33:22 AM 32.7833 -97.0333 308° West 198 228 2,700 -700 Descending Dallas / Fort Worth TRACON
Wed 11:34:22 AM 32.8167 -97.0333 360° North 132 152 1,800 -800 Descending Dallas / Fort Worth TRACON
Wed 11:35:22 AM 32.8667 -97.0333 360° North 130 150 1,100 -700 Descending Dallas / Fort Worth TRACON
Wed 11:37:00 AM 32.8909 -97.0033 253° West  Level FlightAware Approximate
Wed 11:44:00 AM 32.8833 -97.0333 253° West  Level FlightAware Approximate

Login

Don't have an account? Register now (free) for customized features, flight alerts, and more!